FDB67EM OMSJ-HEGN
Flight info
| Callsign | FDB67EM |
|---|---|
| Flight time | N/A |
| Altitude | 36000 |
| Route | ANVIX4Q ANVIX DCT GIDIS G783 RIGIL M628 PEKEM DCT SITER M440 KSA M321 IVONU/N0464F380 M321 HLF N316 HGD DCT |
| Aircraft | B38M/M-SDE1FGHILORVWXY/HB1 |
Departure
| Time | 2026-05-08 18:53 |
|---|---|
| Airport | Sharjah International Airport (OMSJ) |
Arrival
| Time | N/A |
|---|---|
| Airport | Hurghada International Airport (HEGN) |
| Time | Latitude | Longitude | Altitude | Speed | Heading |
|---|---|---|---|---|---|
| 2026-05-08 18:06 | 25.32386 | 55.51907 | 95 ft | 0 kts | 216° |
| 2026-05-08 18:35 | 25.32387 | 55.51908 | 95 ft | 3 kts | 216° |
| 2026-05-08 18:35 | 25.32403 | 55.51921 | 97 ft | 3 kts | 216° |
| 2026-05-08 18:35 | 25.32418 | 55.51933 | 96 ft | 3 kts | 216° |
| 2026-05-08 18:36 | 25.32433 | 55.51945 | 96 ft | 3 kts | 216° |
| 2026-05-08 18:36 | 25.32448 | 55.51957 | 95 ft | 3 kts | 216° |
| 2026-05-08 18:36 | 25.32463 | 55.51969 | 96 ft | 3 kts | 216° |
| 2026-05-08 18:36 | 25.32478 | 55.51982 | 96 ft | 3 kts | 216° |
| 2026-05-08 18:37 | 25.32494 | 55.51994 | 95 ft | 3 kts | 216° |
| 2026-05-08 18:37 | 25.32506 | 55.52003 | 96 ft | 0 kts | 216° |
| 2026-05-08 18:44 | 25.32514 | 55.52010 | 97 ft | 2 kts | 216° |
| 2026-05-08 18:45 | 25.32522 | 55.52017 | 96 ft | 0 kts | 216° |
| 2026-05-08 18:45 | 25.32519 | 55.52015 | 96 ft | 2 kts | 204° |
| 2026-05-08 18:46 | 25.32494 | 55.52020 | 97 ft | 6 kts | 152° |
| 2026-05-08 18:46 | 25.32460 | 55.52069 | 96 ft | 10 kts | 119° |
| 2026-05-08 18:46 | 25.32416 | 55.52151 | 97 ft | 14 kts | 123° |
| 2026-05-08 18:46 | 25.32366 | 55.52236 | 97 ft | 12 kts | 123° |
| 2026-05-08 18:47 | 25.32385 | 55.52309 | 99 ft | 13 kts | 29° |
| 2026-05-08 18:47 | 25.32459 | 55.52382 | 98 ft | 16 kts | 77° |
| 2026-05-08 18:47 | 25.32409 | 55.52499 | 99 ft | 16 kts | 122° |
| 2026-05-08 18:47 | 25.32340 | 55.52620 | 100 ft | 21 kts | 122° |
| 2026-05-08 18:48 | 25.32256 | 55.52766 | 103 ft | 22 kts | 122° |
| 2026-05-08 18:48 | 25.32175 | 55.52905 | 102 ft | 22 kts | 122° |
| 2026-05-08 18:48 | 25.32091 | 55.53055 | 103 ft | 25 kts | 122° |
| 2026-05-08 18:48 | 25.32007 | 55.53198 | 104 ft | 15 kts | 122° |
| 2026-05-08 18:49 | 25.31961 | 55.53281 | 105 ft | 11 kts | 115° |
| 2026-05-08 18:49 | 25.31984 | 55.53350 | 105 ft | 5 kts | 31° |
| 2026-05-08 18:49 | 25.31986 | 55.53352 | 105 ft | 0 kts | 30° |
| 2026-05-08 18:50 | 25.31990 | 55.53354 | 105 ft | 2 kts | 30° |
| 2026-05-08 18:51 | 25.32004 | 55.53364 | 104 ft | 3 kts | 32° |
| 2026-05-08 18:51 | 25.32027 | 55.53380 | 105 ft | 5 kts | 33° |
| 2026-05-08 18:51 | 25.32059 | 55.53402 | 106 ft | 6 kts | 32° |
| 2026-05-08 18:51 | 25.32103 | 55.53425 | 106 ft | 8 kts | 5° |
| 2026-05-08 18:52 | 25.32158 | 55.53396 | 105 ft | 10 kts | 318° |
| 2026-05-08 18:52 | 25.32203 | 55.53323 | 105 ft | 13 kts | 302° |
| 2026-05-08 18:52 | 25.32283 | 55.53183 | 102 ft | 36 kts | 303° |
| 2026-05-08 18:52 | 25.32549 | 55.52721 | 101 ft | 104 kts | 302° |
| 2026-05-08 18:53 | 25.33045 | 55.51859 | 93 ft | 159 kts | 302° |
| 2026-05-08 18:53 | 25.33702 | 55.50723 | 296 ft | 183 kts | 303° |
| 2026-05-08 18:53 | 25.34439 | 55.49535 | 805 ft | 191 kts | 303° |
| 2026-05-08 18:53 | 25.35147 | 55.48310 | 1468 ft | 181 kts | 301° |
| 2026-05-08 18:54 | 25.35818 | 55.47112 | 1823 ft | 195 kts | 301° |
| 2026-05-08 18:54 | 25.36555 | 55.45784 | 2275 ft | 208 kts | 301° |
| 2026-05-08 18:54 | 25.37334 | 55.44392 | 2643 ft | 219 kts | 301° |
| 2026-05-08 18:54 | 25.38149 | 55.42954 | 2736 ft | 222 kts | 301° |
| 2026-05-08 18:55 | 25.40569 | 55.41005 | 2793 ft | 230 kts | 351° |
| 2026-05-08 18:55 | 25.42170 | 55.41269 | 2806 ft | 239 kts | 20° |
| 2026-05-08 18:55 | 25.43618 | 55.42218 | 2812 ft | 243 kts | 28° |
| 2026-05-08 18:56 | 25.45050 | 55.43217 | 2840 ft | 244 kts | 28° |
| 2026-05-08 18:56 | 25.46492 | 55.44223 | 2865 ft | 246 kts | 28° |
| 2026-05-08 18:56 | 25.47904 | 55.45208 | 3574 ft | 242 kts | 29° |
| 2026-05-08 18:56 | 25.49343 | 55.46212 | 4325 ft | 248 kts | 30° |
| 2026-05-08 18:57 | 25.50803 | 55.47233 | 5130 ft | 250 kts | 32° |
| 2026-05-08 18:57 | 25.51710 | 55.48061 | 5488 ft | 262 kts | 49° |
| 2026-05-08 18:57 | 25.52612 | 55.50632 | 6144 ft | 282 kts | 91° |
| 2026-05-08 18:57 | 25.52135 | 55.52725 | 6804 ft | 286 kts | 120° |
| 2026-05-08 18:58 | 25.51041 | 55.54594 | 7450 ft | 292 kts | 123° |
| 2026-05-08 18:58 | 25.49953 | 55.56496 | 8245 ft | 294 kts | 123° |
| 2026-05-08 18:58 | 25.48869 | 55.58393 | 9024 ft | 296 kts | 123° |
| 2026-05-08 18:58 | 25.47765 | 55.60330 | 9823 ft | 299 kts | 123° |
| 2026-05-08 18:59 | 25.46653 | 55.62283 | 10591 ft | 301 kts | 123° |
| 2026-05-08 18:59 | 25.45537 | 55.64241 | 11402 ft | 301 kts | 123° |
| 2026-05-08 18:59 | 25.44418 | 55.66203 | 12230 ft | 302 kts | 123° |
| 2026-05-08 18:59 | 25.43294 | 55.68173 | 13058 ft | 303 kts | 122° |
| 2026-05-08 19:00 | 25.42509 | 55.69454 | 13615 ft | 304 kts | 130° |
| 2026-05-08 19:00 | 25.40525 | 55.71653 | 14544 ft | 308 kts | 141° |
| 2026-05-08 19:00 | 25.38632 | 55.72755 | 15217 ft | 311 kts | 165° |
| 2026-05-08 19:00 | 25.36463 | 55.72940 | 15833 ft | 318 kts | 187° |
| 2026-05-08 19:01 | 25.34360 | 55.72164 | 16487 ft | 324 kts | 210° |
| 2026-05-08 19:01 | 25.32513 | 55.70655 | 16851 ft | 339 kts | 216° |
| 2026-05-08 19:01 | 25.30553 | 55.69091 | 16984 ft | 358 kts | 214° |
| 2026-05-08 19:01 | 25.28475 | 55.67457 | 17093 ft | 376 kts | 212° |
| 2026-05-08 19:02 | 25.26070 | 55.66358 | 17340 ft | 384 kts | 189° |
| 2026-05-08 19:02 | 25.23404 | 55.66341 | 17842 ft | 386 kts | 170° |
| 2026-05-08 19:02 | 25.20743 | 55.66845 | 18313 ft | 391 kts | 171° |
| 2026-05-08 19:02 | 25.18048 | 55.67290 | 18778 ft | 393 kts | 172° |
| 2026-05-08 19:03 | 25.15329 | 55.67647 | 19257 ft | 394 kts | 175° |
| 2026-05-08 19:03 | 25.12586 | 55.67927 | 19733 ft | 396 kts | 175° |
| 2026-05-08 19:03 | 25.09847 | 55.68215 | 20198 ft | 398 kts | 175° |
| 2026-05-08 19:03 | 25.07088 | 55.68511 | 20650 ft | 400 kts | 175° |
| 2026-05-08 19:04 | 25.04304 | 55.68810 | 21077 ft | 403 kts | 175° |
| 2026-05-08 19:04 | 25.01520 | 55.69106 | 21309 ft | 411 kts | 175° |
| 2026-05-08 19:04 | 24.98671 | 55.69411 | 21718 ft | 413 kts | 173° |
| 2026-05-08 19:04 | 24.95893 | 55.70255 | 22120 ft | 417 kts | 157° |
| 2026-05-08 19:05 | 24.93426 | 55.71946 | 22540 ft | 422 kts | 141° |
| 2026-05-08 19:05 | 24.91417 | 55.74318 | 22929 ft | 427 kts | 130° |
| 2026-05-08 19:05 | 24.89600 | 55.76914 | 23279 ft | 430 kts | 129° |
| 2026-05-08 19:05 | 24.87803 | 55.79545 | 23604 ft | 433 kts | 129° |
| 2026-05-08 19:06 | 24.86003 | 55.82215 | 23877 ft | 436 kts | 129° |
| 2026-05-08 19:06 | 24.84219 | 55.84874 | 24195 ft | 438 kts | 129° |
| 2026-05-08 19:06 | 24.82399 | 55.87568 | 24492 ft | 440 kts | 129° |
| 2026-05-08 19:06 | 24.80384 | 55.90096 | 24750 ft | 439 kts | 142° |
| 2026-05-08 19:07 | 24.77861 | 55.91947 | 25067 ft | 437 kts | 156° |
| 2026-05-08 19:07 | 24.74990 | 55.93036 | 25311 ft | 436 kts | 171° |
| 2026-05-08 19:07 | 24.71980 | 55.93340 | 25613 ft | 436 kts | 180° |
| 2026-05-08 19:07 | 24.68939 | 55.93414 | 25895 ft | 438 kts | 181° |
| 2026-05-08 19:08 | 24.65901 | 55.93413 | 26233 ft | 440 kts | 182° |
| 2026-05-08 19:08 | 24.62838 | 55.93225 | 26511 ft | 440 kts | 192° |
| 2026-05-08 19:08 | 24.60028 | 55.92286 | 26776 ft | 439 kts | 206° |
| 2026-05-08 19:08 | 24.57436 | 55.90511 | 27018 ft | 440 kts | 219° |
| 2026-05-08 19:09 | 24.55056 | 55.88389 | 27319 ft | 442 kts | 220° |
| 2026-05-08 19:09 | 24.52696 | 55.86211 | 27601 ft | 444 kts | 221° |
| 2026-05-08 19:09 | 24.50349 | 55.84001 | 27908 ft | 445 kts | 221° |
| 2026-05-08 19:09 | 24.48007 | 55.81771 | 28196 ft | 447 kts | 221° |
| 2026-05-08 19:10 | 24.45671 | 55.79531 | 28479 ft | 448 kts | 222° |
| 2026-05-08 19:10 | 24.43320 | 55.77274 | 28765 ft | 450 kts | 222° |
| 2026-05-08 19:10 | 24.40959 | 55.75006 | 29047 ft | 452 kts | 222° |
| 2026-05-08 19:10 | 24.38593 | 55.72734 | 29320 ft | 453 kts | 222° |
| 2026-05-08 19:11 | 24.36250 | 55.70484 | 29586 ft | 455 kts | 222° |
| 2026-05-08 19:11 | 24.33865 | 55.68197 | 29849 ft | 456 kts | 222° |
| 2026-05-08 19:11 | 24.31471 | 55.65902 | 30139 ft | 456 kts | 222° |
| 2026-05-08 19:11 | 24.29085 | 55.63615 | 30444 ft | 456 kts | 222° |
| 2026-05-08 19:12 | 24.26599 | 55.61481 | 30705 ft | 457 kts | 212° |
| 2026-05-08 19:12 | 24.23689 | 55.60085 | 31026 ft | 459 kts | 198° |
| 2026-05-08 19:12 | 24.20620 | 55.59111 | 31302 ft | 459 kts | 198° |
| 2026-05-08 19:12 | 24.17557 | 55.58148 | 31607 ft | 459 kts | 198° |
| 2026-05-08 19:13 | 24.14523 | 55.57218 | 31947 ft | 458 kts | 197° |
| 2026-05-08 19:13 | 24.11464 | 55.56295 | 32297 ft | 456 kts | 197° |
| 2026-05-08 19:13 | 24.08404 | 55.55378 | 32646 ft | 455 kts | 197° |
| 2026-05-08 19:13 | 24.05351 | 55.54466 | 32987 ft | 454 kts | 197° |
| 2026-05-08 19:14 | 24.02321 | 55.53561 | 33335 ft | 453 kts | 197° |
| 2026-05-08 19:14 | 23.99281 | 55.52657 | 33682 ft | 452 kts | 197° |
| 2026-05-08 19:14 | 23.96254 | 55.51757 | 34013 ft | 450 kts | 197° |
| 2026-05-08 19:14 | 23.93236 | 55.50860 | 34296 ft | 449 kts | 197° |
| 2026-05-08 19:15 | 23.90218 | 55.49963 | 34587 ft | 448 kts | 197° |
| 2026-05-08 19:15 | 23.87251 | 55.49082 | 34861 ft | 448 kts | 197° |
| 2026-05-08 19:15 | 23.84246 | 55.48189 | 35132 ft | 447 kts | 197° |
| 2026-05-08 19:15 | 23.81252 | 55.47300 | 35411 ft | 446 kts | 197° |
| 2026-05-08 19:16 | 23.78274 | 55.46416 | 35662 ft | 445 kts | 197° |
| 2026-05-08 19:16 | 23.75278 | 55.45526 | 35856 ft | 446 kts | 197° |
| 2026-05-08 19:16 | 23.72292 | 55.44641 | 35869 ft | 444 kts | 197° |
| 2026-05-08 19:17 | 23.66351 | 55.42879 | 35863 ft | 443 kts | 197° |
| 2026-05-08 19:17 | 23.60444 | 55.41129 | 35857 ft | 443 kts | 197° |
| 2026-05-08 19:18 | 23.54508 | 55.39373 | 35856 ft | 443 kts | 197° |
| 2026-05-08 19:18 | 23.48565 | 55.37614 | 35855 ft | 443 kts | 197° |
| 2026-05-08 19:19 | 23.42615 | 55.35856 | 35844 ft | 443 kts | 197° |
| 2026-05-08 19:19 | 23.36705 | 55.34109 | 35850 ft | 443 kts | 197° |
| 2026-05-08 19:20 | 23.31720 | 55.32638 | 35852 ft | 443 kts | 197° |
| 2026-05-08 19:20 | 23.24820 | 55.30603 | 35845 ft | 443 kts | 197° |
| 2026-05-08 19:21 | 23.18869 | 55.28850 | 35846 ft | 443 kts | 197° |
| 2026-05-08 19:21 | 23.12916 | 55.27098 | 35842 ft | 443 kts | 197° |
| 2026-05-08 19:22 | 23.07193 | 55.24861 | 35826 ft | 439 kts | 214° |
| 2026-05-08 19:22 | 23.04866 | 55.22761 | 35845 ft | 437 kts | 229° |
| 2026-05-08 19:22 | 23.03075 | 55.20104 | 35835 ft | 438 kts | 241° |
| 2026-05-08 19:22 | 23.01915 | 55.17045 | 35841 ft | 439 kts | 253° |
| 2026-05-08 19:23 | 23.01105 | 55.13842 | 35842 ft | 442 kts | 254° |
| 2026-05-08 19:23 | 22.99682 | 55.07354 | 35844 ft | 442 kts | 256° |
| 2026-05-08 19:24 | 22.98370 | 55.00878 | 35836 ft | 442 kts | 256° |
| 2026-05-08 19:24 | 22.97080 | 54.94370 | 35833 ft | 442 kts | 256° |
| 2026-05-08 19:25 | 22.95788 | 54.87853 | 35833 ft | 442 kts | 256° |
| 2026-05-08 19:25 | 22.94494 | 54.81335 | 35832 ft | 442 kts | 256° |
| 2026-05-08 19:26 | 22.93198 | 54.74821 | 35831 ft | 442 kts | 256° |
| 2026-05-08 19:26 | 22.91910 | 54.68362 | 35833 ft | 442 kts | 256° |
| 2026-05-08 19:27 | 22.90608 | 54.61848 | 35834 ft | 442 kts | 256° |
| 2026-05-08 19:27 | 22.89304 | 54.55337 | 35834 ft | 442 kts | 256° |
| 2026-05-08 19:28 | 22.87996 | 54.48824 | 35840 ft | 442 kts | 256° |
| 2026-05-08 19:28 | 22.86698 | 54.42370 | 35839 ft | 442 kts | 256° |
| 2026-05-08 19:29 | 22.85385 | 54.35861 | 35837 ft | 442 kts | 256° |
| 2026-05-08 19:29 | 22.84071 | 54.29357 | 35834 ft | 442 kts | 256° |
| 2026-05-08 19:30 | 22.82754 | 54.22856 | 35844 ft | 442 kts | 256° |
| 2026-05-08 19:30 | 22.81438 | 54.16373 | 35843 ft | 441 kts | 256° |
| 2026-05-08 19:31 | 22.80127 | 54.09924 | 35848 ft | 441 kts | 256° |
| 2026-05-08 19:31 | 22.78806 | 54.03435 | 35847 ft | 441 kts | 257° |
| 2026-05-08 19:31 | 22.78479 | 54.00134 | 35821 ft | 443 kts | 271° |
| 2026-05-08 19:32 | 22.78978 | 53.96843 | 35851 ft | 446 kts | 283° |
| 2026-05-08 19:32 | 22.80742 | 53.90374 | 35850 ft | 449 kts | 284° |
| 2026-05-08 19:33 | 22.82601 | 53.83921 | 35845 ft | 449 kts | 284° |
| 2026-05-08 19:33 | 22.84479 | 53.77521 | 35850 ft | 449 kts | 285° |
| 2026-05-08 19:34 | 22.86373 | 53.71071 | 35854 ft | 449 kts | 284° |
| 2026-05-08 19:34 | 22.88261 | 53.64634 | 35852 ft | 449 kts | 284° |
| 2026-05-08 19:35 | 22.90149 | 53.58184 | 35853 ft | 449 kts | 284° |
| 2026-05-08 19:35 | 22.92022 | 53.51778 | 35855 ft | 448 kts | 284° |
| 2026-05-08 19:36 | 22.93904 | 53.45328 | 35859 ft | 449 kts | 284° |
| 2026-05-08 19:36 | 22.95779 | 53.38889 | 35855 ft | 448 kts | 284° |
| 2026-05-08 19:37 | 22.97651 | 53.32453 | 35861 ft | 448 kts | 284° |
| 2026-05-08 19:37 | 22.99509 | 53.26052 | 35859 ft | 448 kts | 284° |
| 2026-05-08 19:38 | 23.01377 | 53.19606 | 35866 ft | 448 kts | 284° |
| 2026-05-08 19:38 | 23.03240 | 53.13168 | 35866 ft | 448 kts | 284° |
| 2026-05-08 19:39 | 23.05104 | 53.06717 | 35864 ft | 448 kts | 284° |
| 2026-05-08 19:39 | 23.06950 | 53.00315 | 35874 ft | 447 kts | 284° |
| 2026-05-08 19:40 | 23.08806 | 52.93868 | 35874 ft | 447 kts | 284° |
| 2026-05-08 19:40 | 23.10654 | 52.87441 | 35877 ft | 447 kts | 284° |
| 2026-05-08 19:41 | 23.12502 | 52.80999 | 35878 ft | 447 kts | 284° |
| 2026-05-08 19:41 | 23.14335 | 52.74599 | 35879 ft | 446 kts | 284° |
| 2026-05-08 19:42 | 23.16176 | 52.68162 | 35877 ft | 446 kts | 284° |
| 2026-05-08 19:42 | 23.18012 | 52.61732 | 35878 ft | 446 kts | 284° |
| 2026-05-08 19:43 | 23.19849 | 52.55286 | 35877 ft | 446 kts | 284° |
| 2026-05-08 19:43 | 23.21682 | 52.48842 | 35879 ft | 446 kts | 283° |
| 2026-05-08 19:44 | 23.23501 | 52.42439 | 35885 ft | 446 kts | 283° |
| 2026-05-08 19:44 | 23.25328 | 52.35997 | 35883 ft | 446 kts | 283° |
| 2026-05-08 19:45 | 23.27153 | 52.29550 | 35879 ft | 446 kts | 283° |
| 2026-05-08 19:45 | 23.28976 | 52.23099 | 35888 ft | 446 kts | 283° |
| 2026-05-08 19:46 | 23.30786 | 52.16683 | 35886 ft | 446 kts | 283° |
| 2026-05-08 19:46 | 23.33508 | 52.07010 | 35897 ft | 446 kts | 283° |
| 2026-05-08 19:47 | 23.35318 | 52.00569 | 35891 ft | 445 kts | 283° |
| 2026-05-08 19:47 | 23.37126 | 51.94121 | 35885 ft | 445 kts | 283° |
| 2026-05-08 19:48 | 23.38918 | 51.87716 | 35884 ft | 446 kts | 283° |
| 2026-05-08 19:48 | 23.40719 | 51.81271 | 35884 ft | 446 kts | 283° |
| 2026-05-08 19:49 | 23.42521 | 51.74813 | 35884 ft | 446 kts | 283° |
| 2026-05-08 19:49 | 23.44320 | 51.68350 | 35884 ft | 446 kts | 283° |
| 2026-05-08 19:50 | 23.46105 | 51.61928 | 35898 ft | 446 kts | 283° |
| 2026-05-08 19:50 | 23.47895 | 51.55478 | 35896 ft | 446 kts | 282° |
| 2026-05-08 19:51 | 23.49693 | 51.48986 | 35893 ft | 447 kts | 282° |
| 2026-05-08 19:51 | 23.51487 | 51.42499 | 35891 ft | 447 kts | 282° |
| 2026-05-08 19:52 | 23.53267 | 51.36050 | 35895 ft | 447 kts | 282° |
| 2026-05-08 19:52 | 23.55052 | 51.29570 | 35896 ft | 448 kts | 282° |
| 2026-05-08 19:53 | 23.56842 | 51.23063 | 35897 ft | 448 kts | 282° |
| 2026-05-08 19:53 | 23.58630 | 51.16551 | 35902 ft | 448 kts | 282° |
| 2026-05-08 19:54 | 23.60397 | 51.10102 | 35902 ft | 447 kts | 282° |
| 2026-05-08 19:54 | 23.62172 | 51.03615 | 35910 ft | 447 kts | 282° |
| 2026-05-08 19:55 | 23.63948 | 50.97111 | 35912 ft | 447 kts | 282° |
| 2026-05-08 19:55 | 23.65721 | 50.90608 | 35911 ft | 447 kts | 282° |
| 2026-05-08 19:56 | 23.67479 | 50.84148 | 35901 ft | 447 kts | 281° |
| 2026-05-08 19:56 | 23.69243 | 50.77652 | 35904 ft | 447 kts | 281° |
| 2026-05-08 19:57 | 23.71007 | 50.71147 | 35909 ft | 446 kts | 281° |
| 2026-05-08 19:57 | 23.72761 | 50.64664 | 35913 ft | 446 kts | 281° |
| 2026-05-08 19:58 | 23.74502 | 50.58221 | 35913 ft | 445 kts | 281° |
| 2026-05-08 19:58 | 23.76248 | 50.51745 | 35916 ft | 445 kts | 281° |
| 2026-05-08 19:59 | 23.77699 | 50.46355 | 35913 ft | 445 kts | 281° |
| 2026-05-08 19:59 | 23.79441 | 50.39873 | 35923 ft | 445 kts | 281° |
| 2026-05-08 20:00 | 23.81461 | 50.32342 | 35935 ft | 444 kts | 280° |
| 2026-05-08 20:00 | 23.82907 | 50.26942 | 35922 ft | 443 kts | 280° |
| 2026-05-08 20:01 | 23.84621 | 50.20528 | 35924 ft | 443 kts | 280° |
| 2026-05-08 20:01 | 23.86343 | 50.14074 | 35925 ft | 443 kts | 280° |
| 2026-05-08 20:02 | 23.88063 | 50.07615 | 35926 ft | 443 kts | 280° |
| 2026-05-08 20:02 | 23.89777 | 50.01169 | 35926 ft | 442 kts | 280° |
| 2026-05-08 20:03 | 23.91479 | 49.94754 | 35926 ft | 443 kts | 280° |
| 2026-05-08 20:03 | 23.93191 | 49.88291 | 35938 ft | 442 kts | 280° |
| 2026-05-08 20:04 | 23.94891 | 49.81859 | 35930 ft | 440 kts | 280° |
| 2026-05-08 20:04 | 23.96583 | 49.75449 | 35932 ft | 440 kts | 280° |
| 2026-05-08 20:05 | 23.98267 | 49.69057 | 35928 ft | 440 kts | 280° |
| 2026-05-08 20:05 | 23.99957 | 49.62627 | 35929 ft | 440 kts | 280° |
| 2026-05-08 20:06 | 24.01645 | 49.56193 | 35935 ft | 440 kts | 280° |
| 2026-05-08 20:06 | 24.03330 | 49.49761 | 35936 ft | 440 kts | 279° |
| 2026-05-08 20:07 | 24.04994 | 49.43398 | 35946 ft | 438 kts | 279° |
| 2026-05-08 20:07 | 24.06667 | 49.36990 | 35938 ft | 438 kts | 279° |
| 2026-05-08 20:08 | 24.08337 | 49.30586 | 35937 ft | 438 kts | 279° |
| 2026-05-08 20:08 | 24.10002 | 49.24186 | 35947 ft | 437 kts | 279° |
| 2026-05-08 20:09 | 24.11660 | 49.17803 | 35940 ft | 437 kts | 279° |
| 2026-05-08 20:09 | 24.13307 | 49.11448 | 35935 ft | 437 kts | 279° |
| 2026-05-08 20:10 | 24.14961 | 49.05057 | 35963 ft | 436 kts | 279° |
| 2026-05-08 20:10 | 24.15478 | 49.03057 | 35946 ft | 435 kts | 279° |
| 2026-05-08 20:17 | 24.16987 | 48.97214 | 35944 ft | 434 kts | 278° |
| 2026-05-08 20:17 | 24.18681 | 48.90909 | 35934 ft | 439 kts | 284° |
| 2026-05-08 20:18 | 24.20827 | 48.84649 | 35939 ft | 439 kts | 283° |
| 2026-05-08 20:18 | 24.22921 | 48.78379 | 35945 ft | 438 kts | 283° |
| 2026-05-08 20:19 | 24.25006 | 48.72102 | 35948 ft | 438 kts | 283° |
| 2026-05-08 20:19 | 24.27070 | 48.65875 | 35961 ft | 438 kts | 282° |
| 2026-05-08 20:20 | 24.29144 | 48.59611 | 35951 ft | 437 kts | 282° |
| 2026-05-08 20:20 | 24.31211 | 48.53357 | 35956 ft | 437 kts | 282° |
| 2026-05-08 20:21 | 24.33277 | 48.47097 | 35955 ft | 436 kts | 282° |
| 2026-05-08 20:21 | 24.35322 | 48.40891 | 35962 ft | 435 kts | 282° |
| 2026-05-08 20:22 | 24.37371 | 48.34663 | 35962 ft | 434 kts | 282° |
| 2026-05-08 20:22 | 24.39417 | 48.28431 | 35960 ft | 434 kts | 282° |
| 2026-05-08 20:23 | 24.41463 | 48.22193 | 35969 ft | 434 kts | 282° |
| 2026-05-08 20:23 | 24.43482 | 48.16027 | 35965 ft | 432 kts | 282° |
| 2026-05-08 20:24 | 24.45512 | 48.09818 | 35968 ft | 432 kts | 282° |
| 2026-05-08 20:24 | 24.47541 | 48.03601 | 35972 ft | 432 kts | 282° |
| 2026-05-08 20:25 | 24.49567 | 47.97383 | 35994 ft | 433 kts | 282° |
| 2026-05-08 20:25 | 24.51571 | 47.91224 | 35975 ft | 432 kts | 282° |
| 2026-05-08 20:26 | 24.53590 | 47.85013 | 35978 ft | 432 kts | 282° |
| 2026-05-08 20:26 | 24.55695 | 47.78817 | 35980 ft | 436 kts | 285° |
| 2026-05-08 20:27 | 24.58075 | 47.72690 | 35983 ft | 436 kts | 284° |
| 2026-05-08 20:27 | 24.60402 | 47.66601 | 35985 ft | 436 kts | 284° |
| 2026-05-08 20:28 | 24.62747 | 47.60447 | 35994 ft | 436 kts | 284° |
| 2026-05-08 20:28 | 24.65087 | 47.54298 | 35993 ft | 437 kts | 284° |
| 2026-05-08 20:29 | 24.67428 | 47.48134 | 35991 ft | 437 kts | 284° |
| 2026-05-08 20:29 | 24.69747 | 47.42021 | 35994 ft | 437 kts | 284° |
| 2026-05-08 20:30 | 24.72085 | 47.35850 | 35983 ft | 437 kts | 284° |
| 2026-05-08 20:30 | 24.74420 | 47.29677 | 36021 ft | 437 kts | 284° |
| 2026-05-08 20:31 | 24.76747 | 47.23517 | 36002 ft | 436 kts | 283° |
| 2026-05-08 20:31 | 24.79058 | 47.17389 | 35992 ft | 436 kts | 284° |
| 2026-05-08 20:32 | 24.81376 | 47.11234 | 36004 ft | 436 kts | 284° |
| 2026-05-08 20:32 | 24.83695 | 47.05068 | 36010 ft | 436 kts | 284° |
| 2026-05-08 20:33 | 24.86012 | 46.98896 | 36030 ft | 436 kts | 283° |
| 2026-05-08 20:33 | 24.88304 | 46.92784 | 36011 ft | 434 kts | 283° |
| 2026-05-08 20:34 | 24.90605 | 46.86641 | 36061 ft | 434 kts | 283° |